sensor_id;sensor_type;location;lat;lon;timestamp;pressure;altitude;pressure_sealevel;temperature;humidity
5283;BME280;15376;48.540;9.268;2023-06-14T00:00:09;96985.56;;;13.66;69.22
5283;BME280;15376;48.540;9.268;2023-06-14T00:02:35;96992.66;;;13.48;67.47
5283;BME280;15376;48.540;9.268;2023-06-14T00:05:00;96969.59;;;13.22;68.93
5283;BME280;15376;48.540;9.268;2023-06-14T00:07:37;96988.94;;;13.55;69.99
5283;BME280;15376;48.540;9.268;2023-06-14T00:10:03;96996.25;;;13.60;70.63
5283;BME280;15376;48.540;9.268;2023-06-14T00:12:30;96990.00;;;13.48;71.43
5283;BME280;15376;48.540;9.268;2023-06-14T00:14:56;96996.63;;;13.32;71.49
5283;BME280;15376;48.540;9.268;2023-06-14T00:17:22;96990.22;;;13.46;71.08
5283;BME280;15376;48.540;9.268;2023-06-14T00:19:48;96956.63;;;13.32;71.25
5283;BME280;15376;48.540;9.268;2023-06-14T00:22:13;96967.50;;;13.30;70.32
5283;BME280;15376;48.540;9.268;2023-06-14T00:24:38;96967.16;;;13.14;72.63
5283;BME280;15376;48.540;9.268;2023-06-14T00:27:04;96964.56;;;12.87;74.42
5283;BME280;15376;48.540;9.268;2023-06-14T00:29:30;96992.81;;;13.01;75.23
5283;BME280;15376;48.540;9.268;2023-06-14T00:31:56;96963.59;;;12.75;74.82
5283;BME280;15376;48.540;9.268;2023-06-14T00:34:21;96986.31;;;12.84;72.76
5283;BME280;15376;48.540;9.268;2023-06-14T00:36:47;96960.13;;;12.68;73.62
5283;BME280;15376;48.540;9.268;2023-06-14T00:39:13;96962.19;;;12.73;74.42
5283;BME280;15376;48.540;9.268;2023-06-14T00:41:39;96978.59;;;12.63;75.32
5283;BME280;15376;48.540;9.268;2023-06-14T00:44:05;96965.13;;;12.31;76.27
5283;BME280;15376;48.540;9.268;2023-06-14T00:46:30;96946.69;;;12.17;77.87
5283;BME280;15376;48.540;9.268;2023-06-14T00:48:56;96985.97;;;12.61;78.00
5283;BME280;15376;48.540;9.268;2023-06-14T00:51:23;96981.06;;;12.58;77.96
5283;BME280;15376;48.540;9.268;2023-06-14T00:53:50;96964.72;;;12.21;78.99
5283;BME280;15376;48.540;9.268;2023-06-14T00:56:16;96961.84;;;12.03;79.10
5283;BME280;15376;48.540;9.268;2023-06-14T00:58:41;96961.44;;;11.86;80.22
5283;BME280;15376;48.540;9.268;2023-06-14T01:01:07;96948.28;;;11.72;80.31
5283;BME280;15376;48.540;9.268;2023-06-14T01:03:33;96976.28;;;11.41;82.80
5283;BME280;15376;48.540;9.268;2023-06-14T01:09:18;96951.38;;;10.94;86.70
5283;BME280;15376;48.540;9.268;2023-06-14T01:12:18;96985.47;;;10.91;88.85
5283;BME280;15376;48.540;9.268;2023-06-14T01:14:47;96940.25;;;10.71;90.42
5283;BME280;15376;48.540;9.268;2023-06-14T01:17:14;96981.59;;;11.41;87.89
5283;BME280;15376;48.540;9.268;2023-06-14T01:19:42;96980.59;;;11.62;85.13
5283;BME280;15376;48.540;9.268;2023-06-14T01:22:09;96968.81;;;11.78;83.31
5283;BME280;15376;48.540;9.268;2023-06-14T01:24:35;96985.41;;;11.93;80.82
5283;BME280;15376;48.540;9.268;2023-06-14T01:27:02;97001.16;;;12.01;79.61
5283;BME280;15376;48.540;9.268;2023-06-14T01:29:28;96997.88;;;12.12;78.53
5283;BME280;15376;48.540;9.268;2023-06-14T01:31:58;96977.00;;;12.16;78.53
5283;BME280;15376;48.540;9.268;2023-06-14T01:34:25;96998.72;;;12.32;77.69
5283;BME280;15376;48.540;9.268;2023-06-14T01:36:52;96996.63;;;12.48;77.26
5283;BME280;15376;48.540;9.268;2023-06-14T01:39:20;96962.22;;;12.40;76.17
5283;BME280;15376;48.540;9.268;2023-06-14T01:41:47;96993.75;;;12.69;76.18
5283;BME280;15376;48.540;9.268;2023-06-14T01:44:15;96976.34;;;12.60;75.94
5283;BME280;15376;48.540;9.268;2023-06-14T01:46:42;96977.75;;;12.69;75.67
5283;BME280;15376;48.540;9.268;2023-06-14T01:49:08;96961.81;;;12.49;76.07
5283;BME280;15376;48.540;9.268;2023-06-14T01:51:34;96974.09;;;12.57;76.15
5283;BME280;15376;48.540;9.268;2023-06-14T01:54:00;96987.19;;;12.65;75.21
5283;BME280;15376;48.540;9.268;2023-06-14T01:56:26;96979.00;;;12.66;74.96
5283;BME280;15376;48.540;9.268;2023-06-14T01:58:52;96988.63;;;12.67;75.35
5283;BME280;15376;48.540;9.268;2023-06-14T02:01:19;96980.25;;;12.44;75.57
5283;BME280;15376;48.540;9.268;2023-06-14T02:03:47;96991.34;;;12.28;77.11
5283;BME280;15376;48.540;9.268;2023-06-14T02:06:13;96978.84;;;12.15;78.08
5283;BME280;15376;48.540;9.268;2023-06-14T02:08:41;96988.88;;;11.87;79.96
5283;BME280;15376;48.540;9.268;2023-06-14T02:11:06;96951.03;;;11.11;81.85
5283;BME280;15376;48.540;9.268;2023-06-14T02:13:31;96984.72;;;11.03;84.94
5283;BME280;15376;48.540;9.268;2023-06-14T02:15:57;96968.84;;;11.17;84.12
5283;BME280;15376;48.540;9.268;2023-06-14T02:18:23;96994.03;;;11.34;84.01
5283;BME280;15376;48.540;9.268;2023-06-14T02:20:48;96997.59;;;11.54;83.44
5283;BME280;15376;48.540;9.268;2023-06-14T02:23:14;96986.75;;;11.62;82.39
5283;BME280;15376;48.540;9.268;2023-06-14T02:25:40;96996.25;;;11.91;81.04
5283;BME280;15376;48.540;9.268;2023-06-14T02:28:05;96988.44;;;12.03;79.93
5283;BME280;15376;48.540;9.268;2023-06-14T02:30:31;96989.69;;;11.94;79.73
5283;BME280;15376;48.540;9.268;2023-06-14T02:32:56;96992.75;;;11.91;79.99
5283;BME280;15376;48.540;9.268;2023-06-14T02:35:22;96979.19;;;11.73;80.04
5283;BME280;15376;48.540;9.268;2023-06-14T02:37:51;97000.66;;;11.64;80.95
5283;BME280;15376;48.540;9.268;2023-06-14T02:40:17;96999.44;;;11.67;81.08
5283;BME280;15376;48.540;9.268;2023-06-14T02:42:43;97000.66;;;11.64;80.91
5283;BME280;15376;48.540;9.268;2023-06-14T02:45:08;96974.00;;;11.31;81.30
5283;BME280;15376;48.540;9.268;2023-06-14T02:47:34;97002.03;;;11.41;82.54
5283;BME280;15376;48.540;9.268;2023-06-14T02:49:59;97000.41;;;11.46;82.52
5283;BME280;15376;48.540;9.268;2023-06-14T02:52:25;96990.59;;;11.47;81.49
5283;BME280;15376;48.540;9.268;2023-06-14T02:54:50;96999.22;;;11.55;81.91
5283;BME280;15376;48.540;9.268;2023-06-14T02:57:16;96992.44;;;11.46;81.94
5283;BME280;15376;48.540;9.268;2023-06-14T02:59:41;96975.63;;;11.32;81.69
5283;BME280;15376;48.540;9.268;2023-06-14T03:02:06;96986.00;;;11.21;81.65
5283;BME280;15376;48.540;9.268;2023-06-14T03:04:32;97003.47;;;11.43;81.33
5283;BME280;15376;48.540;9.268;2023-06-14T03:07:02;96987.50;;;11.36;81.18
5283;BME280;15376;48.540;9.268;2023-06-14T03:09:34;97007.16;;;11.42;81.77
5283;BME280;15376;48.540;9.268;2023-06-14T03:12:00;96985.00;;;11.22;82.60
5283;BME280;15376;48.540;9.268;2023-06-14T03:14:26;97008.53;;;11.25;82.59
5283;BME280;15376;48.540;9.268;2023-06-14T03:16:51;96974.78;;;11.19;82.26
5283;BME280;15376;48.540;9.268;2023-06-14T03:19:22;96994.84;;;11.28;82.12
5283;BME280;15376;48.540;9.268;2023-06-14T03:21:48;96998.69;;;11.12;83.42
5283;BME280;15376;48.540;9.268;2023-06-14T03:24:15;97001.31;;;11.06;82.89
5283;BME280;15376;48.540;9.268;2023-06-14T03:26:41;96996.88;;;10.78;82.10
5283;BME280;15376;48.540;9.268;2023-06-14T03:29:07;97003.91;;;10.58;83.42
5283;BME280;15376;48.540;9.268;2023-06-14T03:31:34;96997.78;;;10.57;84.13
5283;BME280;15376;48.540;9.268;2023-06-14T03:34:00;97014.72;;;10.91;84.15
5283;BME280;15376;48.540;9.268;2023-06-14T03:36:25;97011.16;;;11.12;83.56
5283;BME280;15376;48.540;9.268;2023-06-14T03:38:51;97019.34;;;11.17;83.16
5283;BME280;15376;48.540;9.268;2023-06-14T03:41:16;97021.81;;;11.18;83.44
5283;BME280;15376;48.540;9.268;2023-06-14T03:43:41;97024.19;;;11.07;83.90
5283;BME280;15376;48.540;9.268;2023-06-14T03:46:07;97013.56;;;11.07;84.44
5283;BME280;15376;48.540;9.268;2023-06-14T03:48:32;97022.63;;;11.19;83.65
5283;BME280;15376;48.540;9.268;2023-06-14T03:50:58;97004.72;;;10.58;85.98
5283;BME280;15376;48.540;9.268;2023-06-14T03:53:23;97010.47;;;10.62;87.58
5283;BME280;15376;48.540;9.268;2023-06-14T03:55:49;97034.56;;;10.95;87.35
5283;BME280;15376;48.540;9.268;2023-06-14T03:58:17;97031.53;;;11.05;86.99
5283;BME280;15376;48.540;9.268;2023-06-14T04:00:42;97023.88;;;10.88;87.45
5283;BME280;15376;48.540;9.268;2023-06-14T04:03:08;97023.34;;;10.99;87.55
5283;BME280;15376;48.540;9.268;2023-06-14T04:05:33;97024.50;;;10.90;87.95
5283;BME280;15376;48.540;9.268;2023-06-14T04:07:59;97030.06;;;10.61;90.08
5283;BME280;15376;48.540;9.268;2023-06-14T04:10:26;97035.44;;;10.67;90.17
5283;BME280;15376;48.540;9.268;2023-06-14T04:12:51;97056.97;;;10.79;91.15
5283;BME280;15376;48.540;9.268;2023-06-14T04:15:17;97050.53;;;10.67;91.60
5283;BME280;15376;48.540;9.268;2023-06-14T04:17:43;97056.56;;;10.54;93.15
5283;BME280;15376;48.540;9.268;2023-06-14T04:20:08;97046.91;;;10.47;94.61
5283;BME280;15376;48.540;9.268;2023-06-14T04:22:34;97027.16;;;10.56;94.03
5283;BME280;15376;48.540;9.268;2023-06-14T04:25:01;97055.91;;;10.80;93.56
5283;BME280;15376;48.540;9.268;2023-06-14T04:27:27;97077.16;;;11.08;92.94
5283;BME280;15376;48.540;9.268;2023-06-14T04:29:53;97078.63;;;11.24;91.35
5283;BME280;15376;48.540;9.268;2023-06-14T04:32:23;97071.63;;;11.51;89.12
5283;BME280;15376;48.540;9.268;2023-06-14T04:34:54;97077.47;;;11.33;88.09
5283;BME280;15376;48.540;9.268;2023-06-14T04:37:22;97074.25;;;11.44;87.93
5283;BME280;15376;48.540;9.268;2023-06-14T04:39:48;97067.34;;;11.56;87.42
5283;BME280;15376;48.540;9.268;2023-06-14T04:42:14;97054.00;;;11.43;87.08
5283;BME280;15376;48.540;9.268;2023-06-14T04:44:41;97063.25;;;11.54;87.49
5283;BME280;15376;48.540;9.268;2023-06-14T04:47:07;97075.22;;;11.78;86.79
5283;BME280;15376;48.540;9.268;2023-06-14T04:49:32;97085.09;;;12.10;85.35
5283;BME280;15376;48.540;9.268;2023-06-14T04:51:59;97088.00;;;12.28;84.40
5283;BME280;15376;48.540;9.268;2023-06-14T04:54:27;97088.22;;;12.27;83.20
5283;BME280;15376;48.540;9.268;2023-06-14T04:56:53;97096.41;;;12.39;83.36
5283;BME280;15376;48.540;9.268;2023-06-14T04:59:21;97097.84;;;12.48;82.55
5283;BME280;15376;48.540;9.268;2023-06-14T05:01:49;97070.59;;;12.32;82.86
5283;BME280;15376;48.540;9.268;2023-06-14T05:04:15;97099.69;;;12.60;83.09
5283;BME280;15376;48.540;9.268;2023-06-14T05:06:42;97099.28;;;12.63;83.18
5283;BME280;15376;48.540;9.268;2023-06-14T05:09:10;97099.28;;;12.77;82.07
5283;BME280;15376;48.540;9.268;2023-06-14T05:11:35;97071.56;;;12.84;82.02
5283;BME280;15376;48.540;9.268;2023-06-14T05:14:00;97088.16;;;12.99;80.82
5283;BME280;15376;48.540;9.268;2023-06-14T05:16:26;97100.25;;;13.15;80.18
5283;BME280;15376;48.540;9.268;2023-06-14T05:18:52;97093.84;;;13.36;79.80
5283;BME280;15376;48.540;9.268;2023-06-14T05:21:18;97090.34;;;13.42;78.88
5283;BME280;15376;48.540;9.268;2023-06-14T05:23:44;97102.44;;;13.51;77.96
5283;BME280;15376;48.540;9.268;2023-06-14T05:26:10;97087.88;;;13.47;78.04
5283;BME280;15376;48.540;9.268;2023-06-14T05:28:36;97087.44;;;13.50;77.66
5283;BME280;15376;48.540;9.268;2023-06-14T05:31:01;97115.63;;;13.84;77.25
5283;BME280;15376;48.540;9.268;2023-06-14T05:33:27;97114.75;;;13.97;76.35
5283;BME280;15376;48.540;9.268;2023-06-14T05:35:52;97082.22;;;13.68;75.88
5283;BME280;15376;48.540;9.268;2023-06-14T05:38:18;97113.44;;;14.06;77.12
5283;BME280;15376;48.540;9.268;2023-06-14T05:40:43;97111.66;;;14.31;75.85
5283;BME280;15376;48.540;9.268;2023-06-14T05:43:08;97117.34;;;14.42;74.71
5283;BME280;15376;48.540;9.268;2023-06-14T05:45:34;97090.22;;;14.45;73.38
5283;BME280;15376;48.540;9.268;2023-06-14T05:47:59;97091.47;;;14.42;73.45
5283;BME280;15376;48.540;9.268;2023-06-14T05:50:24;97088.91;;;14.54;72.92
5283;BME280;15376;48.540;9.268;2023-06-14T05:52:50;97114.69;;;14.73;72.16
5283;BME280;15376;48.540;9.268;2023-06-14T05:55:16;97119.28;;;14.84;71.21
5283;BME280;15376;48.540;9.268;2023-06-14T05:57:42;97121.25;;;14.95;71.29
5283;BME280;15376;48.540;9.268;2023-06-14T06:00:08;97120.53;;;15.07;70.09
5283;BME280;15376;48.540;9.268;2023-06-14T06:02:38;97117.28;;;15.05;68.89
5283;BME280;15376;48.540;9.268;2023-06-14T06:05:03;97109.09;;;14.99;69.10
5283;BME280;15376;48.540;9.268;2023-06-14T06:07:29;97117.66;;;15.08;68.44
5283;BME280;15376;48.540;9.268;2023-06-14T06:09:54;97119.72;;;15.06;68.26
5283;BME280;15376;48.540;9.268;2023-06-14T06:12:19;97108.09;;;15.37;67.43
5283;BME280;15376;48.540;9.268;2023-06-14T06:14:45;97099.88;;;15.57;66.94
5283;BME280;15376;48.540;9.268;2023-06-14T06:17:10;97117.47;;;15.64;66.16
5283;BME280;15376;48.540;9.268;2023-06-14T06:19:36;97105.50;;;15.67;65.87
5283;BME280;15376;48.540;9.268;2023-06-14T06:22:01;97114.50;;;15.73;65.32
5283;BME280;15376;48.540;9.268;2023-06-14T06:24:27;97128.19;;;15.83;64.61
5283;BME280;15376;48.540;9.268;2023-06-14T06:26:52;97114.13;;;15.87;64.23
5283;BME280;15376;48.540;9.268;2023-06-14T06:29:17;97127.06;;;16.20;65.59
5283;BME280;15376;48.540;9.268;2023-06-14T06:31:43;97132.63;;;16.37;62.56
5283;BME280;15376;48.540;9.268;2023-06-14T06:34:08;97119.00;;;16.39;60.70
5283;BME280;15376;48.540;9.268;2023-06-14T06:36:33;97129.94;;;16.37;61.33
5283;BME280;15376;48.540;9.268;2023-06-14T06:38:59;97105.09;;;16.30;60.86
5283;BME280;15376;48.540;9.268;2023-06-14T06:41:24;97136.97;;;16.61;60.95
5283;BME280;15376;48.540;9.268;2023-06-14T06:43:50;97123.22;;;16.58;60.46
5283;BME280;15376;48.540;9.268;2023-06-14T06:46:15;97133.78;;;16.71;60.32
5283;BME280;15376;48.540;9.268;2023-06-14T06:48:42;97140.94;;;17.12;61.57
5283;BME280;15376;48.540;9.268;2023-06-14T06:51:08;97148.50;;;17.50;59.40
5283;BME280;15376;48.540;9.268;2023-06-14T06:53:33;97136.72;;;17.40;59.80
5283;BME280;15376;48.540;9.268;2023-06-14T06:55:58;97148.47;;;17.62;59.21
5283;BME280;15376;48.540;9.268;2023-06-14T06:58:24;97136.00;;;17.67;56.22
5283;BME280;15376;48.540;9.268;2023-06-14T07:00:50;97136.59;;;17.70;56.64
5283;BME280;15376;48.540;9.268;2023-06-14T07:03:15;97151.31;;;17.67;54.65
5283;BME280;15376;48.540;9.268;2023-06-14T07:05:40;97141.22;;;17.62;55.86
5283;BME280;15376;48.540;9.268;2023-06-14T07:08:06;97156.44;;;17.80;54.75
5283;BME280;15376;48.540;9.268;2023-06-14T07:10:31;97149.28;;;17.62;55.54
5283;BME280;15376;48.540;9.268;2023-06-14T07:12:56;97151.66;;;17.71;55.16
5283;BME280;15376;48.540;9.268;2023-06-14T07:15:22;97152.03;;;18.03;53.38
5283;BME280;15376;48.540;9.268;2023-06-14T07:17:47;97155.63;;;18.08;54.19
5283;BME280;15376;48.540;9.268;2023-06-14T07:20:12;97173.13;;;18.22;52.04
5283;BME280;15376;48.540;9.268;2023-06-14T07:22:42;97145.38;;;18.05;52.11
5283;BME280;15376;48.540;9.268;2023-06-14T07:25:09;97178.03;;;18.25;52.46
5283;BME280;15376;48.540;9.268;2023-06-14T07:27:35;97159.41;;;18.36;51.97
5283;BME280;15376;48.540;9.268;2023-06-14T07:30:00;97163.91;;;18.47;51.84
5283;BME280;15376;48.540;9.268;2023-06-14T07:32:26;97174.25;;;18.67;52.55
5283;BME280;15376;48.540;9.268;2023-06-14T07:34:51;97161.16;;;18.70;52.27
5283;BME280;15376;48.540;9.268;2023-06-14T07:37:16;97178.59;;;18.84;52.83
5283;BME280;15376;48.540;9.268;2023-06-14T07:39:42;97185.38;;;18.87;51.90
5283;BME280;15376;48.540;9.268;2023-06-14T07:42:07;97161.56;;;18.95;50.80
5283;BME280;15376;48.540;9.268;2023-06-14T07:44:33;97187.59;;;19.07;52.04
5283;BME280;15376;48.540;9.268;2023-06-14T07:46:58;97187.53;;;19.18;51.67
5283;BME280;15376;48.540;9.268;2023-06-14T07:49:25;97151.78;;;18.89;52.78
5283;BME280;15376;48.540;9.268;2023-06-14T07:51:50;97194.13;;;19.11;51.63
5283;BME280;15376;48.540;9.268;2023-06-14T07:54:16;97189.13;;;19.19;52.28
5283;BME280;15376;48.540;9.268;2023-06-14T07:56:41;97191.09;;;19.24;51.57
5283;BME280;15376;48.540;9.268;2023-06-14T07:59:07;97158.88;;;19.12;51.06
5283;BME280;15376;48.540;9.268;2023-06-14T08:01:32;97168.56;;;18.96;51.67
5283;BME280;15376;48.540;9.268;2023-06-14T08:03:58;97165.16;;;19.01;52.06
5283;BME280;15376;48.540;9.268;2023-06-14T08:06:24;97168.25;;;19.10;51.41
5283;BME280;15376;48.540;9.268;2023-06-14T08:08:49;97175.84;;;19.13;50.53
5283;BME280;15376;48.540;9.268;2023-06-14T08:11:14;97186.94;;;19.33;48.70
5283;BME280;15376;48.540;9.268;2023-06-14T08:13:40;97170.03;;;19.38;48.36
5283;BME280;15376;48.540;9.268;2023-06-14T08:16:05;97181.88;;;19.53;49.40
5283;BME280;15376;48.540;9.268;2023-06-14T08:18:31;97181.66;;;19.55;50.27
5283;BME280;15376;48.540;9.268;2023-06-14T08:20:56;97189.81;;;19.82;47.67
5283;BME280;15376;48.540;9.268;2023-06-14T08:23:22;97187.91;;;19.99;48.98
5283;BME280;15376;48.540;9.268;2023-06-14T08:25:48;97177.53;;;20.13;47.99
5283;BME280;15376;48.540;9.268;2023-06-14T08:28:13;97183.88;;;20.02;46.75
5283;BME280;15376;48.540;9.268;2023-06-14T08:30:38;97193.34;;;20.26;46.75
5283;BME280;15376;48.540;9.268;2023-06-14T08:33:04;97191.97;;;20.23;46.50
5283;BME280;15376;48.540;9.268;2023-06-14T08:35:29;97196.94;;;20.31;47.87
5283;BME280;15376;48.540;9.268;2023-06-14T08:37:55;97191.03;;;20.35;46.45
5283;BME280;15376;48.540;9.268;2023-06-14T08:40:22;97195.22;;;20.47;46.58
5283;BME280;15376;48.540;9.268;2023-06-14T08:42:51;97196.72;;;20.60;46.63
5283;BME280;15376;48.540;9.268;2023-06-14T08:45:18;97200.03;;;20.67;47.42
5283;BME280;15376;48.540;9.268;2023-06-14T08:47:44;97201.63;;;20.63;46.81
5283;BME280;15376;48.540;9.268;2023-06-14T08:50:11;97184.16;;;20.71;46.06
5283;BME280;15376;48.540;9.268;2023-06-14T08:52:38;97193.69;;;20.78;44.75
5283;BME280;15376;48.540;9.268;2023-06-14T08:55:11;97200.44;;;21.08;44.12
5283;BME280;15376;48.540;9.268;2023-06-14T08:57:37;97200.41;;;21.35;44.45
5283;BME280;15376;48.540;9.268;2023-06-14T09:00:04;97195.28;;;21.38;44.73
5283;BME280;15376;48.540;9.268;2023-06-14T09:02:37;97181.56;;;21.13;44.25
5283;BME280;15376;48.540;9.268;2023-06-14T09:05:02;97203.25;;;21.23;44.86
5283;BME280;15376;48.540;9.268;2023-06-14T09:07:28;97184.53;;;21.11;43.92
5283;BME280;15376;48.540;9.268;2023-06-14T09:10:14;97185.25;;;21.34;43.33
5283;BME280;15376;48.540;9.268;2023-06-14T09:12:40;97172.09;;;21.42;42.42
5283;BME280;15376;48.540;9.268;2023-06-14T09:15:06;97197.72;;;21.77;41.70
5283;BME280;15376;48.540;9.268;2023-06-14T09:17:35;97189.09;;;21.85;41.87
5283;BME280;15376;48.540;9.268;2023-06-14T09:20:05;97201.03;;;21.89;41.53
5283;BME280;15376;48.540;9.268;2023-06-14T09:22:42;97197.53;;;21.93;40.76
5283;BME280;15376;48.540;9.268;2023-06-14T09:25:08;97115.34;;;21.42;40.82
5283;BME280;15376;48.540;9.268;2023-06-14T09:27:33;97189.97;;;21.95;40.40
5283;BME280;15376;48.540;9.268;2023-06-14T09:29:59;97187.59;;;22.04;41.88
5283;BME280;15376;48.540;9.268;2023-06-14T09:32:25;97198.84;;;22.33;40.70
5283;BME280;15376;48.540;9.268;2023-06-14T09:34:50;97198.38;;;22.61;40.26
5283;BME280;15376;48.540;9.268;2023-06-14T09:37:29;97185.94;;;22.71;39.60
5283;BME280;15376;48.540;9.268;2023-06-14T09:39:55;97183.97;;;22.46;39.68
5283;BME280;15376;48.540;9.268;2023-06-14T09:42:20;97183.47;;;22.59;39.71
5283;BME280;15376;48.540;9.268;2023-06-14T09:44:47;97189.53;;;22.97;38.77
5283;BME280;15376;48.540;9.268;2023-06-14T09:47:17;97196.31;;;23.29;38.44
5283;BME280;15376;48.540;9.268;2023-06-14T09:49:42;97193.88;;;23.33;36.56
5283;BME280;15376;48.540;9.268;2023-06-14T09:52:14;97186.81;;;23.32;36.97
5283;BME280;15376;48.540;9.268;2023-06-14T09:54:42;97209.84;;;23.60;37.30
5283;BME280;15376;48.540;9.268;2023-06-14T09:57:12;97191.44;;;23.32;37.43
5283;BME280;15376;48.540;9.268;2023-06-14T09:59:42;97188.44;;;23.33;39.41
5283;BME280;15376;48.540;9.268;2023-06-14T10:02:17;97188.44;;;23.64;37.81
5283;BME280;15376;48.540;9.268;2023-06-14T10:04:46;97207.16;;;23.60;36.57
5283;BME280;15376;48.540;9.268;2023-06-14T10:07:19;97183.84;;;23.59;36.44
5283;BME280;15376;48.540;9.268;2023-06-14T10:09:45;97191.19;;;23.58;35.48
5283;BME280;15376;48.540;9.268;2023-06-14T10:12:16;97193.28;;;23.82;34.42
5283;BME280;15376;48.540;9.268;2023-06-14T10:14:50;97193.56;;;23.80;34.84
5283;BME280;15376;48.540;9.268;2023-06-14T10:17:33;97193.47;;;24.06;34.09
5283;BME280;15376;48.540;9.268;2023-06-14T10:20:25;97201.75;;;24.50;33.10
5283;BME280;15376;48.540;9.268;2023-06-14T10:23:08;97198.00;;;25.29;31.79
5283;BME280;15376;48.540;9.268;2023-06-14T10:25:35;97189.22;;;26.19;32.90
5283;BME280;15376;48.540;9.268;2023-06-14T10:28:21;97207.19;;;27.56;29.23
5283;BME280;15376;48.540;9.268;2023-06-14T10:31:11;97210.47;;;27.72;29.68
5283;BME280;15376;48.540;9.268;2023-06-14T10:33:48;97205.91;;;29.27;25.24
5283;BME280;15376;48.540;9.268;2023-06-14T10:39:05;97206.53;;;29.69;27.49
5283;BME280;15376;48.540;9.268;2023-06-14T10:41:34;97204.13;;;31.29;23.58
5283;BME280;15376;48.540;9.268;2023-06-14T10:46:38;97192.06;;;32.41;24.79
5283;BME280;15376;48.540;9.268;2023-06-14T10:49:04;97194.09;;;33.44;22.54
5283;BME280;15376;48.540;9.268;2023-06-14T10:51:38;97188.63;;;33.90;22.59
5283;BME280;15376;48.540;9.268;2023-06-14T10:54:12;97207.41;;;35.22;20.44
5283;BME280;15376;48.540;9.268;2023-06-14T10:56:38;97201.38;;;34.06;22.76
5283;BME280;15376;48.540;9.268;2023-06-14T10:59:10;97192.81;;;32.50;23.33
5283;BME280;15376;48.540;9.268;2023-06-14T11:01:37;97194.69;;;32.88;22.20
5283;BME280;15376;48.540;9.268;2023-06-14T11:04:07;97194.72;;;32.20;23.48
5283;BME280;15376;48.540;9.268;2023-06-14T11:06:45;97198.59;;;32.28;24.11
5283;BME280;15376;48.540;9.268;2023-06-14T11:11:46;97175.22;;;32.04;23.87
5283;BME280;15376;48.540;9.268;2023-06-14T11:14:11;97179.97;;;31.95;23.62
5283;BME280;15376;48.540;9.268;2023-06-14T11:16:37;97181.84;;;31.22;22.81
5283;BME280;15376;48.540;9.268;2023-06-14T11:19:02;97171.34;;;30.81;23.47
5283;BME280;15376;48.540;9.268;2023-06-14T11:21:28;97190.25;;;32.45;22.64
5283;BME280;15376;48.540;9.268;2023-06-14T11:23:56;97191.94;;;32.88;21.73
5283;BME280;15376;48.540;9.268;2023-06-14T11:26:29;97185.31;;;34.08;21.74
5283;BME280;15376;48.540;9.268;2023-06-14T11:28:55;97200.50;;;34.88;19.26
5283;BME280;15376;48.540;9.268;2023-06-14T11:31:22;97183.50;;;33.13;21.89
5283;BME280;15376;48.540;9.268;2023-06-14T11:33:49;97186.63;;;33.24;22.51
5283;BME280;15376;48.540;9.268;2023-06-14T11:36:15;97182.47;;;33.72;20.83
5283;BME280;15376;48.540;9.268;2023-06-14T11:38:41;97188.38;;;33.83;20.81
5283;BME280;15376;48.540;9.268;2023-06-14T11:41:06;97136.03;;;32.25;22.71
5283;BME280;15376;48.540;9.268;2023-06-14T11:43:31;97186.88;;;32.77;22.84
5283;BME280;15376;48.540;9.268;2023-06-14T11:45:58;97190.94;;;33.55;22.24
5283;BME280;15376;48.540;9.268;2023-06-14T11:48:35;97168.19;;;33.04;21.26
5283;BME280;15376;48.540;9.268;2023-06-14T11:51:01;97183.75;;;33.41;21.75
5283;BME280;15376;48.540;9.268;2023-06-14T11:53:26;97164.16;;;34.00;21.33
5283;BME280;15376;48.540;9.268;2023-06-14T11:55:52;97180.19;;;33.74;21.20
5283;BME280;15376;48.540;9.268;2023-06-14T11:58:18;97181.88;;;32.92;21.77
5283;BME280;15376;48.540;9.268;2023-06-14T12:00:43;97185.63;;;33.50;20.99
5283;BME280;15376;48.540;9.268;2023-06-14T12:03:09;97183.41;;;32.80;23.00
5283;BME280;15376;48.540;9.268;2023-06-14T12:05:35;97172.66;;;33.83;20.70
5283;BME280;15376;48.540;9.268;2023-06-14T12:08:02;97182.75;;;35.01;20.10
5283;BME280;15376;48.540;9.268;2023-06-14T12:10:29;97180.06;;;35.17;20.39
5283;BME280;15376;48.540;9.268;2023-06-14T12:12:58;97191.88;;;34.89;20.54
5283;BME280;15376;48.540;9.268;2023-06-14T12:15:24;97183.09;;;35.39;19.05
5283;BME280;15376;48.540;9.268;2023-06-14T12:17:50;97175.13;;;34.33;19.22
5283;BME280;15376;48.540;9.268;2023-06-14T12:20:16;97175.22;;;32.42;21.88
5283;BME280;15376;48.540;9.268;2023-06-14T12:22:55;97178.06;;;33.05;22.12
5283;BME280;15376;48.540;9.268;2023-06-14T12:25:34;97175.44;;;34.68;20.72
5283;BME280;15376;48.540;9.268;2023-06-14T12:28:07;97176.56;;;35.32;19.21
5283;BME280;15376;48.540;9.268;2023-06-14T12:30:35;97178.38;;;35.40;19.02
5283;BME280;15376;48.540;9.268;2023-06-14T12:33:02;97164.53;;;33.99;20.83
5283;BME280;15376;48.540;9.268;2023-06-14T12:35:27;97168.16;;;33.25;20.65
5283;BME280;15376;48.540;9.268;2023-06-14T12:37:53;97151.53;;;32.79;20.98
5283;BME280;15376;48.540;9.268;2023-06-14T12:40:18;97150.69;;;31.99;22.33
5283;BME280;15376;48.540;9.268;2023-06-14T12:42:45;97137.03;;;32.11;22.35
5283;BME280;15376;48.540;9.268;2023-06-14T12:45:12;97168.69;;;31.88;23.57
5283;BME280;15376;48.540;9.268;2023-06-14T12:47:38;97164.19;;;32.22;22.53
5283;BME280;15376;48.540;9.268;2023-06-14T12:50:04;97154.75;;;33.23;21.58
5283;BME280;15376;48.540;9.268;2023-06-14T12:52:30;97140.75;;;32.15;22.05
5283;BME280;15376;48.540;9.268;2023-06-14T12:54:55;97166.09;;;32.80;20.26
5283;BME280;15376;48.540;9.268;2023-06-14T12:57:20;97155.25;;;32.84;21.06
5283;BME280;15376;48.540;9.268;2023-06-14T12:59:46;97170.19;;;32.74;21.79
5283;BME280;15376;48.540;9.268;2023-06-14T13:02:17;97171.88;;;33.62;21.67
5283;BME280;15376;48.540;9.268;2023-06-14T13:04:43;97166.94;;;34.12;20.59
5283;BME280;15376;48.540;9.268;2023-06-14T13:07:08;97175.03;;;34.30;20.72
5283;BME280;15376;48.540;9.268;2023-06-14T13:09:35;97158.66;;;34.12;21.11
5283;BME280;15376;48.540;9.268;2023-06-14T13:12:01;97151.25;;;34.37;20.73
5283;BME280;15376;48.540;9.268;2023-06-14T13:14:26;97162.56;;;33.87;21.22
5283;BME280;15376;48.540;9.268;2023-06-14T13:16:52;97176.59;;;33.94;20.79
5283;BME280;15376;48.540;9.268;2023-06-14T13:19:17;97174.22;;;33.39;21.46